sensor_id;sensor_type;location;lat;lon;timestamp;pressure;altitude;pressure_sealevel;temperature;humidity
69153;BME280;56261;51.580;4.578;2023-05-10T00:01:01;100920.00;;;12.66;100.00
69153;BME280;56261;51.580;4.578;2023-05-10T00:03:27;100932.56;;;12.81;100.00
69153;BME280;56261;51.580;4.578;2023-05-10T00:05:53;100936.81;;;12.75;100.00
69153;BME280;56261;51.580;4.578;2023-05-10T00:08:18;100938.84;;;12.73;100.00
69153;BME280;56261;51.580;4.578;2023-05-10T00:10:44;100930.63;;;12.75;100.00
69153;BME280;56261;51.580;4.578;2023-05-10T00:13:09;100931.47;;;12.75;100.00
69153;BME280;56261;51.580;4.578;2023-05-10T00:15:35;100926.13;;;12.90;100.00
69153;BME280;56261;51.580;4.578;2023-05-10T00:18:00;100932.22;;;12.84;100.00
69153;BME280;56261;51.580;4.578;2023-05-10T00:20:26;100925.28;;;12.90;100.00
69153;BME280;56261;51.580;4.578;2023-05-10T00:22:51;100927.91;;;12.98;100.00
69153;BME280;56261;51.580;4.578;2023-05-10T00:25:17;100919.59;;;12.93;100.00
69153;BME280;56261;51.580;4.578;2023-05-10T00:27:42;100927.91;;;12.98;100.00
69153;BME280;56261;51.580;4.578;2023-05-10T00:30:08;100914.94;;;13.01;100.00
69153;BME280;56261;51.580;4.578;2023-05-10T00:32:34;100917.19;;;12.98;100.00
69153;BME280;56261;51.580;4.578;2023-05-10T00:34:59;100917.06;;;13.06;100.00
69153;BME280;56261;51.580;4.578;2023-05-10T00:37:24;100922.34;;;12.99;100.00
69153;BME280;56261;51.580;4.578;2023-05-10T00:39:50;100909.31;;;12.96;100.00
69153;BME280;56261;51.580;4.578;2023-05-10T00:42:15;100924.66;;;13.02;100.00
69153;BME280;56261;51.580;4.578;2023-05-10T00:44:41;100921.88;;;12.96;100.00
69153;BME280;56261;51.580;4.578;2023-05-10T00:47:07;100926.88;;;13.14;100.00
69153;BME280;56261;51.580;4.578;2023-05-10T00:49:33;100915.59;;;13.03;100.00
69153;BME280;56261;51.580;4.578;2023-05-10T00:51:58;100919.22;;;13.11;100.00
69153;BME280;56261;51.580;4.578;2023-05-10T00:54:24;100918.75;;;13.07;100.00
69153;BME280;56261;51.580;4.578;2023-05-10T00:56:49;100919.97;;;13.04;100.00
69153;BME280;56261;51.580;4.578;2023-05-10T00:59:15;100927.06;;;13.12;100.00
69153;BME280;56261;51.580;4.578;2023-05-10T01:01:42;100930.56;;;12.98;100.00
69153;BME280;56261;51.580;4.578;2023-05-10T01:04:09;100925.13;;;13.06;100.00
69153;BME280;56261;51.580;4.578;2023-05-10T01:06:36;100929.09;;;12.95;100.00
69153;BME280;56261;51.580;4.578;2023-05-10T01:09:01;100929.75;;;12.97;100.00
69153;BME280;56261;51.580;4.578;2023-05-10T01:11:27;100935.09;;;12.97;100.00
69153;BME280;56261;51.580;4.578;2023-05-10T01:13:56;100928.63;;;12.92;100.00
69153;BME280;56261;51.580;4.578;2023-05-10T01:16:23;100929.16;;;12.87;100.00
69153;BME280;56261;51.580;4.578;2023-05-10T01:18:49;100939.22;;;12.85;100.00
69153;BME280;56261;51.580;4.578;2023-05-10T01:21:23;100941.25;;;12.83;100.00
69153;BME280;56261;51.580;4.578;2023-05-10T01:32:57;100946.06;;;12.87;100.00
69153;BME280;56261;51.580;4.578;2023-05-10T01:35:36;100954.53;;;12.76;100.00
69153;BME280;56261;51.580;4.578;2023-05-10T01:38:18;100945.78;;;12.82;100.00
69153;BME280;56261;51.580;4.578;2023-05-10T01:43:48;100953.00;;;12.82;100.00
69153;BME280;56261;51.580;4.578;2023-05-10T01:46:23;100947.25;;;12.85;100.00
69153;BME280;56261;51.580;4.578;2023-05-10T01:48:54;100947.69;;;12.74;100.00
69153;BME280;56261;51.580;4.578;2023-05-10T01:51:23;100951.03;;;12.76;100.00
69153;BME280;56261;51.580;4.578;2023-05-10T01:53:51;100956.28;;;12.69;100.00
69153;BME280;56261;51.580;4.578;2023-05-10T01:56:22;100962.09;;;12.73;100.00
69153;BME280;56261;51.580;4.578;2023-05-10T01:58:50;100949.19;;;12.76;100.00
69153;BME280;56261;51.580;4.578;2023-05-10T02:01:17;100951.41;;;12.73;100.00
69153;BME280;56261;51.580;4.578;2023-05-10T02:03:44;100960.59;;;12.70;100.00
69153;BME280;56261;51.580;4.578;2023-05-10T02:06:12;100961.50;;;12.62;100.00
69153;BME280;56261;51.580;4.578;2023-05-10T02:08:40;100953.13;;;12.65;100.00
69153;BME280;56261;51.580;4.578;2023-05-10T02:11:07;100965.28;;;12.68;100.00
69153;BME280;56261;51.580;4.578;2023-05-10T02:13:34;100959.13;;;12.67;100.00
69153;BME280;56261;51.580;4.578;2023-05-10T02:16:01;100963.00;;;12.65;100.00
69153;BME280;56261;51.580;4.578;2023-05-10T02:18:31;100962.16;;;12.64;100.00
69153;BME280;56261;51.580;4.578;2023-05-10T02:20:57;100968.88;;;12.60;100.00
69153;BME280;56261;51.580;4.578;2023-05-10T02:23:24;100970.66;;;12.68;100.00
69153;BME280;56261;51.580;4.578;2023-05-10T02:25:51;100969.53;;;12.62;100.00
69153;BME280;56261;51.580;4.578;2023-05-10T02:28:18;100969.44;;;12.56;100.00
69153;BME280;56261;51.580;4.578;2023-05-10T02:30:44;100975.53;;;12.64;100.00
69153;BME280;56261;51.580;4.578;2023-05-10T02:33:10;100984.28;;;12.58;100.00
69153;BME280;56261;51.580;4.578;2023-05-10T02:35:37;100979.09;;;12.57;100.00
69153;BME280;56261;51.580;4.578;2023-05-10T02:38:07;100984.44;;;12.57;100.00
69153;BME280;56261;51.580;4.578;2023-05-10T02:40:35;100998.09;;;12.47;100.00
69153;BME280;56261;51.580;4.578;2023-05-10T02:43:02;100991.28;;;12.36;100.00
69153;BME280;56261;51.580;4.578;2023-05-10T02:45:30;100988.38;;;12.23;100.00
69153;BME280;56261;51.580;4.578;2023-05-10T02:47:56;101000.88;;;12.31;100.00
69153;BME280;56261;51.580;4.578;2023-05-10T02:50:22;100993.03;;;12.29;100.00
69153;BME280;56261;51.580;4.578;2023-05-10T02:52:51;100999.56;;;12.27;100.00
69153;BME280;56261;51.580;4.578;2023-05-10T02:55:25;101008.53;;;12.34;100.00
69153;BME280;56261;51.580;4.578;2023-05-10T02:57:56;101004.75;;;12.28;100.00
69153;BME280;56261;51.580;4.578;2023-05-10T03:00:22;101005.06;;;12.25;100.00
69153;BME280;56261;51.580;4.578;2023-05-10T03:02:47;101000.88;;;12.31;100.00
69153;BME280;56261;51.580;4.578;2023-05-10T03:05:13;101001.22;;;12.28;100.00
69153;BME280;56261;51.580;4.578;2023-05-10T03:07:41;100997.00;;;12.33;100.00
69153;BME280;56261;51.580;4.578;2023-05-10T03:10:07;101001.34;;;12.34;100.00
69153;BME280;56261;51.580;4.578;2023-05-10T03:18:10;101005.00;;;12.41;100.00
69153;BME280;56261;51.580;4.578;2023-05-10T03:20:40;101003.34;;;12.32;100.00
69153;BME280;56261;51.580;4.578;2023-05-10T03:23:35;101001.53;;;12.33;100.00
69153;BME280;56261;51.580;4.578;2023-05-10T03:26:02;101010.50;;;12.40;100.00
69153;BME280;56261;51.580;4.578;2023-05-10T03:28:27;101000.50;;;12.34;100.00
69153;BME280;56261;51.580;4.578;2023-05-10T03:30:53;101004.38;;;12.31;100.00
69153;BME280;56261;51.580;4.578;2023-05-10T03:33:20;101005.56;;;12.29;100.00
69153;BME280;56261;51.580;4.578;2023-05-10T03:35:45;101002.09;;;12.20;100.00
69153;BME280;56261;51.580;4.578;2023-05-10T03:38:12;101012.50;;;12.15;100.00
69153;BME280;56261;51.580;4.578;2023-05-10T03:40:38;101014.16;;;12.16;100.00
69153;BME280;56261;51.580;4.578;2023-05-10T03:43:04;101005.47;;;12.14;100.00
69153;BME280;56261;51.580;4.578;2023-05-10T03:45:29;101007.59;;;12.27;100.00
69153;BME280;56261;51.580;4.578;2023-05-10T03:47:56;101010.25;;;12.27;100.00
69153;BME280;56261;51.580;4.578;2023-05-10T03:50:22;101010.28;;;12.18;100.00
69153;BME280;56261;51.580;4.578;2023-05-10T03:52:47;101019.59;;;12.31;100.00
69153;BME280;56261;51.580;4.578;2023-05-10T03:55:13;101015.31;;;12.21;100.00
69153;BME280;56261;51.580;4.578;2023-05-10T03:57:38;101015.78;;;12.25;100.00
69153;BME280;56261;51.580;4.578;2023-05-10T04:00:04;101023.06;;;12.39;100.00
69153;BME280;56261;51.580;4.578;2023-05-10T04:02:29;101035.41;;;12.40;100.00
69153;BME280;56261;51.580;4.578;2023-05-10T04:04:55;101029.41;;;12.38;100.00
69153;BME280;56261;51.580;4.578;2023-05-10T04:07:21;101030.59;;;12.36;100.00
69153;BME280;56261;51.580;4.578;2023-05-10T04:09:47;101031.13;;;12.31;100.00
69153;BME280;56261;51.580;4.578;2023-05-10T04:12:12;101039.31;;;12.30;100.00
69153;BME280;56261;51.580;4.578;2023-05-10T04:14:38;101035.56;;;12.39;100.00
69153;BME280;56261;51.580;4.578;2023-05-10T04:17:03;101029.16;;;12.25;100.00
69153;BME280;56261;51.580;4.578;2023-05-10T04:19:32;101033.97;;;12.30;100.00
69153;BME280;56261;51.580;4.578;2023-05-10T04:21:58;101029.47;;;12.30;100.00
69153;BME280;56261;51.580;4.578;2023-05-10T04:24:23;101027.00;;;12.20;100.00
69153;BME280;56261;51.580;4.578;2023-05-10T04:26:49;101035.28;;;12.34;100.00
69153;BME280;56261;51.580;4.578;2023-05-10T04:29:14;101033.94;;;12.38;100.00
69153;BME280;56261;51.580;4.578;2023-05-10T04:31:40;101028.09;;;12.34;100.00
69153;BME280;56261;51.580;4.578;2023-05-10T04:34:05;101042.59;;;12.40;100.00
69153;BME280;56261;51.580;4.578;2023-05-10T04:36:31;101028.03;;;12.42;100.00
69153;BME280;56261;51.580;4.578;2023-05-10T04:38:59;101035.78;;;12.37;100.00
69153;BME280;56261;51.580;4.578;2023-05-10T04:41:24;101035.78;;;12.37;100.00
69153;BME280;56261;51.580;4.578;2023-05-10T04:43:50;101037.38;;;12.46;100.00
69153;BME280;56261;51.580;4.578;2023-05-10T04:46:15;101038.03;;;12.49;100.00
69153;BME280;56261;51.580;4.578;2023-05-10T04:48:41;101044.91;;;12.43;100.00
69153;BME280;56261;51.580;4.578;2023-05-10T04:51:06;101038.91;;;12.41;100.00
69153;BME280;56261;51.580;4.578;2023-05-10T04:53:32;101050.41;;;12.50;100.00
69153;BME280;56261;51.580;4.578;2023-05-10T04:55:57;101045.03;;;12.50;100.00
69153;BME280;56261;51.580;4.578;2023-05-10T04:58:23;101050.59;;;12.48;100.00
69153;BME280;56261;51.580;4.578;2023-05-10T05:00:48;101052.53;;;12.54;100.00
69153;BME280;56261;51.580;4.578;2023-05-10T05:03:13;101059.91;;;12.52;100.00
69153;BME280;56261;51.580;4.578;2023-05-10T05:05:39;101064.78;;;12.49;100.00
69153;BME280;56261;51.580;4.578;2023-05-10T05:08:04;101060.84;;;12.36;100.00
69153;BME280;56261;51.580;4.578;2023-05-10T05:10:30;101064.88;;;12.32;100.00
69153;BME280;56261;51.580;4.578;2023-05-10T05:12:55;101072.19;;;12.38;100.00
69153;BME280;56261;51.580;4.578;2023-05-10T05:15:20;101070.59;;;12.29;100.00
69153;BME280;56261;51.580;4.578;2023-05-10T05:17:46;101078.88;;;12.42;100.00
69153;BME280;56261;51.580;4.578;2023-05-10T05:20:12;101081.06;;;12.39;100.00
69153;BME280;56261;51.580;4.578;2023-05-10T05:22:38;101085.88;;;12.43;100.00
69153;BME280;56261;51.580;4.578;2023-05-10T05:25:04;101093.56;;;12.46;100.00
69153;BME280;56261;51.580;4.578;2023-05-10T05:27:30;101098.03;;;12.54;100.00
69153;BME280;56261;51.580;4.578;2023-05-10T05:29:57;101104.22;;;12.55;100.00
69153;BME280;56261;51.580;4.578;2023-05-10T05:32:23;101111.47;;;12.46;100.00
69153;BME280;56261;51.580;4.578;2023-05-10T05:34:49;101116.44;;;12.49;100.00
69153;BME280;56261;51.580;4.578;2023-05-10T05:37:16;101113.91;;;12.56;100.00
69153;BME280;56261;51.580;4.578;2023-05-10T05:39:42;101114.03;;;12.62;100.00
69153;BME280;56261;51.580;4.578;2023-05-10T05:42:08;101129.47;;;12.52;100.00
69153;BME280;56261;51.580;4.578;2023-05-10T05:44:34;101128.53;;;12.68;100.00
69153;BME280;56261;51.580;4.578;2023-05-10T05:47:00;101131.19;;;12.76;100.00
69153;BME280;56261;51.580;4.578;2023-05-10T05:49:25;101136.38;;;12.78;100.00
69153;BME280;56261;51.580;4.578;2023-05-10T05:51:50;101129.56;;;12.90;100.00
69153;BME280;56261;51.580;4.578;2023-05-10T05:54:16;101128.63;;;13.06;100.00
69153;BME280;56261;51.580;4.578;2023-05-10T05:56:41;101132.44;;;12.88;100.00
69153;BME280;56261;51.580;4.578;2023-05-10T05:59:07;101137.56;;;12.98;100.00
69153;BME280;56261;51.580;4.578;2023-05-10T06:01:33;101130.72;;;12.96;100.00
69153;BME280;56261;51.580;4.578;2023-05-10T06:03:58;101141.31;;;13.12;100.00
69153;BME280;56261;51.580;4.578;2023-05-10T06:06:23;101136.59;;;13.14;100.00
69153;BME280;56261;51.580;4.578;2023-05-10T06:08:49;101142.25;;;13.19;100.00
69153;BME280;56261;51.580;4.578;2023-05-10T06:11:14;101150.69;;;13.08;100.00
69153;BME280;56261;51.580;4.578;2023-05-10T06:13:39;101154.13;;;13.02;100.00
69153;BME280;56261;51.580;4.578;2023-05-10T06:16:05;101148.03;;;13.08;100.00
69153;BME280;56261;51.580;4.578;2023-05-10T06:18:31;101151.78;;;12.99;100.00
69153;BME280;56261;51.580;4.578;2023-05-10T06:20:56;101149.22;;;12.82;100.00
69153;BME280;56261;51.580;4.578;2023-05-10T06:23:22;101157.88;;;12.93;100.00
69153;BME280;56261;51.580;4.578;2023-05-10T06:25:48;101156.06;;;13.08;100.00
69153;BME280;56261;51.580;4.578;2023-05-10T06:28:13;101140.94;;;12.92;100.00
69153;BME280;56261;51.580;4.578;2023-05-10T06:30:39;101156.00;;;13.16;100.00
69153;BME280;56261;51.580;4.578;2023-05-10T06:33:04;101160.41;;;13.09;100.00
69153;BME280;56261;51.580;4.578;2023-05-10T06:35:30;101160.44;;;13.32;100.00
69153;BME280;56261;51.580;4.578;2023-05-10T06:37:57;101168.88;;;13.44;100.00
69153;BME280;56261;51.580;4.578;2023-05-10T06:40:22;101171.00;;;13.25;100.00
69153;BME280;56261;51.580;4.578;2023-05-10T06:42:48;101165.13;;;13.30;100.00
69153;BME280;56261;51.580;4.578;2023-05-10T06:45:14;101175.69;;;13.32;100.00
69153;BME280;56261;51.580;4.578;2023-05-10T06:47:40;101177.69;;;13.53;100.00
69153;BME280;56261;51.580;4.578;2023-05-10T06:50:07;101163.84;;;13.64;100.00
69153;BME280;56261;51.580;4.578;2023-05-10T06:52:33;101168.31;;;13.72;100.00
69153;BME280;56261;51.580;4.578;2023-05-10T06:54:58;101174.41;;;13.80;100.00
69153;BME280;56261;51.580;4.578;2023-05-10T06:57:24;101176.38;;;13.86;100.00
69153;BME280;56261;51.580;4.578;2023-05-10T06:59:49;101186.91;;;13.73;100.00
69153;BME280;56261;51.580;4.578;2023-05-10T07:02:15;101173.94;;;13.77;100.00
69153;BME280;56261;51.580;4.578;2023-05-10T07:04:40;101181.97;;;13.77;100.00
69153;BME280;56261;51.580;4.578;2023-05-10T07:07:06;101168.97;;;13.88;100.00
69153;BME280;56261;51.580;4.578;2023-05-10T07:09:31;101174.19;;;14.86;100.00
69153;BME280;56261;51.580;4.578;2023-05-10T07:11:57;101160.72;;;15.01;100.00
69153;BME280;56261;51.580;4.578;2023-05-10T07:14:22;101157.44;;;16.05;100.00
69153;BME280;56261;51.580;4.578;2023-05-10T07:16:48;101156.97;;;15.94;100.00
69153;BME280;56261;51.580;4.578;2023-05-10T07:19:17;101172.19;;;15.09;100.00
69153;BME280;56261;51.580;4.578;2023-05-10T07:21:43;101172.81;;;15.83;100.00
69153;BME280;56261;51.580;4.578;2023-05-10T07:24:09;101184.03;;;15.65;100.00
69153;BME280;56261;51.580;4.578;2023-05-10T07:26:34;101175.75;;;16.23;100.00
69153;BME280;56261;51.580;4.578;2023-05-10T07:28:59;101164.06;;;16.44;100.00
69153;BME280;56261;51.580;4.578;2023-05-10T07:31:25;101182.84;;;15.95;100.00
69153;BME280;56261;51.580;4.578;2023-05-10T07:33:50;101187.03;;;16.05;100.00
69153;BME280;56261;51.580;4.578;2023-05-10T07:36:16;101184.88;;;15.44;100.00
69153;BME280;56261;51.580;4.578;2023-05-10T07:38:41;101186.41;;;15.74;100.00
69153;BME280;56261;51.580;4.578;2023-05-10T07:41:06;101188.69;;;15.28;100.00
69153;BME280;56261;51.580;4.578;2023-05-10T07:43:32;101191.13;;;14.86;100.00
69153;BME280;56261;51.580;4.578;2023-05-10T07:45:57;101193.13;;;14.48;100.00
69153;BME280;56261;51.580;4.578;2023-05-10T07:48:25;101194.44;;;14.67;100.00
69153;BME280;56261;51.580;4.578;2023-05-10T07:50:50;101203.66;;;14.79;100.00
69153;BME280;56261;51.580;4.578;2023-05-10T07:53:15;101195.34;;;14.95;100.00
69153;BME280;56261;51.580;4.578;2023-05-10T07:55:41;101201.03;;;14.86;100.00
69153;BME280;56261;51.580;4.578;2023-05-10T07:58:07;101206.97;;;14.96;100.00
69153;BME280;56261;51.580;4.578;2023-05-10T08:00:32;101201.78;;;15.38;100.00
69153;BME280;56261;51.580;4.578;2023-05-10T08:02:58;101206.47;;;15.50;100.00
69153;BME280;56261;51.580;4.578;2023-05-10T08:05:23;101207.63;;;15.91;100.00
69153;BME280;56261;51.580;4.578;2023-05-10T08:07:48;101220.09;;;15.49;100.00
69153;BME280;56261;51.580;4.578;2023-05-10T08:10:14;101211.25;;;15.33;100.00
69153;BME280;56261;51.580;4.578;2023-05-10T08:12:39;101219.19;;;14.84;100.00
69153;BME280;56261;51.580;4.578;2023-05-10T08:15:05;101217.00;;;14.72;100.00
69153;BME280;56261;51.580;4.578;2023-05-10T08:17:32;101228.28;;;14.53;100.00
69153;BME280;56261;51.580;4.578;2023-05-10T08:19:57;101222.09;;;14.67;100.00
69153;BME280;56261;51.580;4.578;2023-05-10T08:22:23;101228.59;;;14.58;100.00
69153;BME280;56261;51.580;4.578;2023-05-10T08:24:48;101235.44;;;14.61;100.00
69153;BME280;56261;51.580;4.578;2023-05-10T08:27:13;101235.22;;;14.32;100.00
69153;BME280;56261;51.580;4.578;2023-05-10T08:29:39;101236.81;;;14.57;100.00
69153;BME280;56261;51.580;4.578;2023-05-10T08:32:04;101232.28;;;14.72;100.00
69153;BME280;56261;51.580;4.578;2023-05-10T08:34:30;101222.53;;;14.71;100.00
69153;BME280;56261;51.580;4.578;2023-05-10T08:36:56;101232.75;;;14.61;100.00
69153;BME280;56261;51.580;4.578;2023-05-10T08:39:21;101241.63;;;14.76;100.00
69153;BME280;56261;51.580;4.578;2023-05-10T08:41:50;101239.78;;;15.13;100.00
69153;BME280;56261;51.580;4.578;2023-05-10T08:44:16;101241.59;;;15.27;100.00
69153;BME280;56261;51.580;4.578;2023-05-10T08:46:46;101243.13;;;15.00;100.00
69153;BME280;56261;51.580;4.578;2023-05-10T08:49:13;101240.97;;;15.25;100.00
69153;BME280;56261;51.580;4.578;2023-05-10T08:51:46;101239.38;;;15.52;100.00
69153;BME280;56261;51.580;4.578;2023-05-10T08:54:12;101236.81;;;15.94;100.00
69153;BME280;56261;51.580;4.578;2023-05-10T08:56:38;101247.09;;;16.12;100.00
69153;BME280;56261;51.580;4.578;2023-05-10T08:59:03;101242.59;;;15.69;100.00
69153;BME280;56261;51.580;4.578;2023-05-10T09:01:31;101252.75;;;15.67;100.00
69153;BME280;56261;51.580;4.578;2023-05-10T09:03:57;101253.53;;;15.25;100.00
69153;BME280;56261;51.580;4.578;2023-05-10T09:06:23;101254.16;;;15.05;100.00
69153;BME280;56261;51.580;4.578;2023-05-10T09:08:49;101255.94;;;14.98;100.00
69153;BME280;56261;51.580;4.578;2023-05-10T09:11:15;101255.28;;;15.32;100.00
69153;BME280;56261;51.580;4.578;2023-05-10T09:13:41;101241.03;;;16.31;100.00
69153;BME280;56261;51.580;4.578;2023-05-10T09:16:07;101247.75;;;16.14;100.00
69153;BME280;56261;51.580;4.578;2023-05-10T09:18:32;101262.00;;;16.08;100.00
69153;BME280;56261;51.580;4.578;2023-05-10T09:20:58;101264.47;;;16.09;100.00
69153;BME280;56261;51.580;4.578;2023-05-10T09:23:23;101264.31;;;15.46;100.00
69153;BME280;56261;51.580;4.578;2023-05-10T09:26:06;101268.81;;;15.39;100.00
69153;BME280;56261;51.580;4.578;2023-05-10T09:28:53;101261.19;;;15.43;100.00
69153;BME280;56261;51.580;4.578;2023-05-10T09:31:19;101263.69;;;15.66;100.00
69153;BME280;56261;51.580;4.578;2023-05-10T09:33:48;101263.19;;;15.98;100.00
69153;BME280;56261;51.580;4.578;2023-05-10T09:36:14;101268.44;;;15.85;100.00
69153;BME280;56261;51.580;4.578;2023-05-10T09:38:50;101278.78;;;16.10;100.00
69153;BME280;56261;51.580;4.578;2023-05-10T09:41:21;101273.94;;;15.77;100.00
69153;BME280;56261;51.580;4.578;2023-05-10T09:43:47;101273.94;;;15.77;100.00
69153;BME280;56261;51.580;4.578;2023-05-10T09:46:13;101288.28;;;15.84;100.00
69153;BME280;56261;51.580;4.578;2023-05-10T09:48:46;101283.09;;;15.83;100.00
69153;BME280;56261;51.580;4.578;2023-05-10T09:51:19;101282.75;;;15.49;100.00
69153;BME280;56261;51.580;4.578;2023-05-10T09:53:45;101285.97;;;15.60;100.00
69153;BME280;56261;51.580;4.578;2023-05-10T09:56:11;101288.69;;;15.23;100.00
69153;BME280;56261;51.580;4.578;2023-05-10T09:58:37;101293.00;;;15.39;100.00
69153;BME280;56261;51.580;4.578;2023-05-10T10:01:11;101283.97;;;15.47;100.00
69153;BME280;56261;51.580;4.578;2023-05-10T10:03:41;101290.88;;;15.34;100.00
69153;BME280;56261;51.580;4.578;2023-05-10T10:06:07;101292.13;;;15.17;100.00
69153;BME280;56261;51.580;4.578;2023-05-10T10:08:33;101291.16;;;15.25;100.00
69153;BME280;56261;51.580;4.578;2023-05-10T10:10:58;101300.50;;;15.07;100.00
69153;BME280;56261;51.580;4.578;2023-05-10T10:13:24;101292.75;;;15.19;100.00
69153;BME280;56261;51.580;4.578;2023-05-10T10:15:51;101298.88;;;15.13;100.00
69153;BME280;56261;51.580;4.578;2023-05-10T10:18:17;101290.63;;;15.29;100.00
69153;BME280;56261;51.580;4.578;2023-05-10T10:20:42;101300.13;;;15.68;100.00
69153;BME280;56261;51.580;4.578;2023-05-10T10:23:08;101272.16;;;15.84;100.00
69153;BME280;56261;51.580;4.578;2023-05-10T10:25:34;101291.13;;;16.26;100.00
69153;BME280;56261;51.580;4.578;2023-05-10T10:31:17;101299.03;;;16.06;100.00
69153;BME280;56261;51.580;4.578;2023-05-10T10:34:00;101300.97;;;15.90;100.00
69153;BME280;56261;51.580;4.578;2023-05-10T10:36:27;101299.50;;;15.88;100.00
69153;BME280;56261;51.580;4.578;2023-05-10T10:39:00;101306.25;;;15.41;100.00
69153;BME280;56261;51.580;4.578;2023-05-10T10:41:33;101300.88;;;15.62;100.00
69153;BME280;56261;51.580;4.578;2023-05-10T10:50:05;101306.25;;;15.41;100.00
69153;BME280;56261;51.580;4.578;2023-05-10T10:52:35;101305.41;;;15.40;100.00
69153;BME280;56261;51.580;4.578;2023-05-10T10:55:15;101306.81;;;15.57;100.00
69153;BME280;56261;51.580;4.578;2023-05-10T10:57:53;101307.22;;;15.54;100.00
69153;BME280;56261;51.580;4.578;2023-05-10T11:00:33;101313.84;;;15.37;100.00
69153;BME280;56261;51.580;4.578;2023-05-10T11:03:08;101302.06;;;15.38;100.00
69153;BME280;56261;51.580;4.578;2023-05-10T11:05:36;101304.13;;;15.57;100.00
69153;BME280;56261;51.580;4.578;2023-05-10T11:08:29;101306.03;;;15.79;100.00
69153;BME280;56261;51.580;4.578;2023-05-10T11:15:54;101300.91;;;16.12;100.00
69153;BME280;56261;51.580;4.578;2023-05-10T11:20:55;101308.47;;;15.95;100.00
69153;BME280;56261;51.580;4.578;2023-05-10T11:23:22;101296.41;;;16.12;100.00
69153;BME280;56261;51.580;4.578;2023-05-10T11:25:48;101303.94;;;16.24;100.00
69153;BME280;56261;51.580;4.578;2023-05-10T11:28:17;101303.72;;;15.97;100.00
69153;BME280;56261;51.580;4.578;2023-05-10T11:30:44;101307.41;;;15.96;100.00
69153;BME280;56261;51.580;4.578;2023-05-10T11:33:16;101305.78;;;15.95;100.00
69153;BME280;56261;51.580;4.578;2023-05-10T11:35:42;101307.00;;;16.21;100.00
69153;BME280;56261;51.580;4.578;2023-05-10T11:38:11;101317.34;;;16.17;100.00
69153;BME280;56261;51.580;4.578;2023-05-10T11:40:37;101302.72;;;16.05;100.00
69153;BME280;56261;51.580;4.578;2023-05-10T11:43:04;101297.69;;;16.16;100.00
69153;BME280;56261;51.580;4.578;2023-05-10T11:45:32;101313.41;;;16.19;100.00
69153;BME280;56261;51.580;4.578;2023-05-10T11:47:58;101317.34;;;16.17;100.00
69153;BME280;56261;51.580;4.578;2023-05-10T11:50:24;101317.16;;;15.97;100.00
69153;BME280;56261;51.580;4.578;2023-05-10T11:52:55;101316.53;;;15.73;100.00
69153;BME280;56261;51.580;4.578;2023-05-10T11:55:21;101312.84;;;15.60;100.00
69153;BME280;56261;51.580;4.578;2023-05-10T11:57:47;101320.28;;;15.57;100.00
69153;BME280;56261;51.580;4.578;2023-05-10T12:00:13;101312.13;;;15.51;100.00
69153;BME280;56261;51.580;4.578;2023-05-10T12:02:39;101321.34;;;15.42;100.00
69153;BME280;56261;51.580;4.578;2023-05-10T12:05:05;101320.88;;;15.38;100.00
69153;BME280;56261;51.580;4.578;2023-05-10T12:07:31;101326.19;;;15.31;100.00
69153;BME280;56261;51.580;4.578;2023-05-10T12:12:46;101341.53;;;15.16;100.00
69153;BME280;56261;51.580;4.578;2023-05-10T12:15:22;101337.22;;;15.22;100.00
69153;BME280;56261;51.580;4.578;2023-05-10T12:17:48;101337.63;;;15.04;100.00
69153;BME280;56261;51.580;4.578;2023-05-10T12:20:14;101347.16;;;15.06;100.00
69153;BME280;56261;51.580;4.578;2023-05-10T12:22:43;101334.47;;;15.00;100.00
69153;BME280;56261;51.580;4.578;2023-05-10T12:25:09;101329.91;;;15.30;100.00
69153;BME280;56261;51.580;4.578;2023-05-10T12:27:35;101328.78;;;15.61;100.00
69153;BME280;56261;51.580;4.578;2023-05-10T12:30:01;101332.38;;;15.68;100.00
69153;BME280;56261;51.580;4.578;2023-05-10T12:32:43;101330.84;;;15.74;100.00
69153;BME280;56261;51.580;4.578;2023-05-10T12:35:09;101335.72;;;15.70;100.00
69153;BME280;56261;51.580;4.578;2023-05-10T12:37:34;101339.81;;;15.66;100.00
69153;BME280;56261;51.580;4.578;2023-05-10T12:40:01;101331.19;;;15.71;100.00
69153;BME280;56261;51.580;4.578;2023-05-10T12:42:28;101342.66;;;16.01;100.00
69153;BME280;56261;51.580;4.578;2023-05-10T12:44:57;101343.91;;;15.98;100.00
69153;BME280;56261;51.580;4.578;2023-05-10T12:47:22;101341.75;;;16.15;100.00
69153;BME280;56261;51.580;4.578;2023-05-10T12:49:48;101344.44;;;16.15;100.00
69153;BME280;56261;51.580;4.578;2023-05-10T12:52:13;101341.66;;;16.30;100.00
69153;BME280;56261;51.580;4.578;2023-05-10T12:54:38;101339.34;;;15.99;100.00
69153;BME280;56261;51.580;4.578;2023-05-10T12:57:04;101322.88;;;16.37;100.00
69153;BME280;56261;51.580;4.578;2023-05-10T12:59:30;101336.03;;;16.82;100.00
69153;BME280;56261;51.580;4.578;2023-05-10T13:01:57;101339.00;;;16.65;100.00
69153;BME280;56261;51.580;4.578;2023-05-10T13:04:22;101340.97;;;16.50;100.00
69153;BME280;56261;51.580;4.578;2023-05-10T13:06:48;101340.84;;;16.30;100.00
69153;BME280;56261;51.580;4.578;2023-05-10T13:09:13;101344.97;;;16.89;100.00
69153;BME280;56261;51.580;4.578;2023-05-10T13:11:38;101336.03;;;16.82;100.00
69153;BME280;56261;51.580;4.578;2023-05-10T13:14:04;101344.16;;;16.60;100.00
69153;BME280;56261;51.580;4.578;2023-05-10T13:16:29;101334.63;;;16.86;100.00